03/18/2000
Moonlight Run 2000 - 10KM

Male Overall Race Results
             Name                     Category            Bib.No.         Time

1 KANANGA, TELES 10KM20-29 2216 00:33:32
2 VIOLA, STEVE 10KM20-29 2146 00:35:23
3 MATSUNO, LONNIE 10KM30-39 2278 00:35:58
4 BICKLEY, ED 10KM40-49 2029 00:36:32
5 PROBST, DALE 10KM30-39 2354 00:38:18
6 FRASER, PHIL 10KM40-49 2130 00:39:10
7 WOOD, KEVIN 10KM20-29 2477 00:39:14
8 ABDELLA, AMED 10KM30-39 2002 00:39:15
9 RUMER, DAVID 10KM16-19 2370 00:39:28
10 WEBER, STEPHEN 10KM30-39 2458 00:40:06
11 YEE, BRUCE 10KM40-49 2481 00:40:11
12 EMERSON, BARRY 10KM40-49 2117 00:40:15
13 GANGL, MARK 10KM20-29 2142 00:40:33
14 WIKENHEISER, GREG 10KM30-39 2469 00:40:53
15 ARNOLD, RALPH 10KM30-39 2007 00:40:57
16 FREEMAN, TERRY 10KM40-49 2131 00:41:11
17 HOY, DAVID 10KM40-49 2195 00:41:14
18 TOTTEN, TEMPLE 10KM20-29 2428 00:41:20
19 MCFADZEN, KEVIN 10KM30-39 2286 00:41:50
20 COPPS, TOM 10KM40-49 2076 00:42:00
21 WATT, KEVIN 10KM20-29 2456 00:42:03
22 LISTER, BEVAN 10KM40-49 2250 00:42:12
23 HEINZE, KIM 10KM30-39 2183 00:42:22
24 WENZEL, ALEX 10KM30-39 2463 00:42:30
25 RUITER, HENK 10KM20-29 2202 00:42:37
26 BAILIE, NEIL 10KM30-39 2014 00:42:38
27 KOZAK, JOHN 10KM20-29 2232 00:42:42
28 MORRIS, GREG 10KM30-39 2309 00:42:48
29 HARAGUCHI, TOMOYOSHI 10KM20-29 2174 00:43:10
30 NESS, DARREN 10KM20-29 2325 00:43:13
31 COATES, CHRIS 10KM20-29 2071 00:43:22
32 BALDREY, RODNEY 10KM30-39 2018 00:43:44
33 MACLEOD, ROY 10KM50-59 2266 00:44:11
34 RODE, LYLE 10KM40-49 2366 00:44:16
35 JONES, DEWI 10KM20-29 2208 00:44:23
36 MCMULLIN, ROGER 10KM50-59 2296 00:44:32
37 KEITCH, JUSTIN 10KM20-29 2219 00:44:36
38 KINDLEY, KEVIN 10KM40-49 2226 00:44:56
39 BALDRY, DEREK 10KM20-29 2020 00:44:57
40 WIEBE, STEPHEN 10KM30-39 2468 00:44:58
41 CARD, KEVIN 10KM40-49 2058 00:44:58
42 MACLAREN, JAMES 10KM30-39 2265 00:45:05
43 GONSALVEZ, CHRIS 10KM16-19 2156 00:45:06
44 JOSEPH, STEVE 10KM20-29 2212 00:45:11
45 VORNBROCK, RICK 10KM30-39 2449 00:45:17
46 GARLAND, J.KELLY 10KM30-39 2143 00:45:28
47 JAMES, STEVEN 10KM30-39 2201 00:45:48
48 DEVLIEGER, MARTEN 10KM16-19 2090 00:46:06
49 MYSHYNIK, GARRY 10KM40-49 2319 00:46:13
50 PETERSON, WADE 10KM30-39 2348 00:46:14
51 DAVIES, JON 10KM30-39 2084 00:46:16
52 GERSTENBUHLER, ARMIN 10KM40-49 2150 00:46:17
53 VILLENEUVE, RON 10KM40-49 2446 00:46:19
54 DE WALLE, FRANK 10KM40-49 2087 00:46:25
55 GAUDET, DANIEL 10KM12-15 2145 00:46:52
56 BOAK, GARTH 10KM50-59 2034 00:46:55
57 CANADINE, MIKE 10KM30-39 2057 00:47:03
58 STUPAR, LOUIS 10KM50-59 2406 00:47:07
59 MOLCAK, LUKE 10KM16-19 2305 00:47:10
60 VERHESEN, PETER 10KM30-39 2443 00:47:26
61 JOEVENAZZO, RANDY 10KM40-49 2203 00:47:28
62 MCGREGOR, ROD 10KM40-49 2289 00:47:39
63 SIMS, ROBERT 10KM50-59 2390 00:47:45
64 COATES, DAVID 10KM50-59 2072 00:47:47
65 CARVALHO, RICHARD 10KM30-39 2059 00:47:48
66 LAWRENCE, BRYAN 10KM40-49 2240 00:47:51
67 KEITH, KEVIN 10KM40-49 2221 00:47:52
68 YOUNG, RICHARD 10KM30-39 2486 00:47:56
69 BYERS, BOB 10KM60-69 2054 00:48:02
70 LYON, MARSUS 10KM30-39 2261 00:48:07
71 BAKKER, JAN 10KM50-59 2017 00:48:25
72 MCDERMOTT, KEN 10KM50-59 2283 00:48:33
73 SHARP, KEVIN 10KM30-39 2386 00:48:41
74 MENARD, LAYNE 10KM20-29 2302 00:48:43
75 SEHN, FRED 10KM40-49 2384 00:48:44
76 BROWNE, ASHLEY 10KM20-29 2050 00:48:48
77 BARNETT, BRIAN 10KM40-49 2023 00:49:08
78 BREWER, SHANE 10KM20-29 2046 00:49:09
79 FORSTER, BOB 10KM40-49 2127 00:49:19
80 MULGREW, MARK 10KM12-15 2316 00:49:25
81 PURVES, DARREN 10KM20-29 2356 00:49:26
82 DUECK, ROD 10KM40-49 2101 00:49:32
83 WARREN, JEFF 10KM40-49 2452 00:49:33
84 MCDONALD, BILL 10KM50-59 2284 00:49:36
85 SCHULZ, TREVOR 10KM20-29 2377 00:49:37
86 WOJTOWICZ, SHAWN 10KM30-39 2473 00:49:55
87 NIELSON, LAMONT 10KM50-59 2327 00:50:00
88 CLARKE, DON 10KM40-49 2069 00:50:15
89 GALLIMORE, DEAN 10KM30-39 2141 00:50:25
90 DUFFY, DAN 10KM20-29 2104 00:50:26
91 SADLEMYER, COREY 10KM20-29 2373 00:50:27
92 FRITZLER, BYRON 10KM30-39 2134 00:50:31
93 THIELEN, LANNIE 10KM20-29 2417 00:50:32
94 HILL, BRETT 10KM20-29 2186 00:50:35
95 CROWFOOT, NATHAN 10KM16-19 2080 00:50:36
96 MCKENNA, MICHAEL 10KM30-39 2290 00:50:53
97 FROESE, DON 10KM40-49 2135 00:50:54
98 REMIER, WAYNE 10KM60-69 2361 00:50:54
99 KOLODZIEJCZYK, ANDREW 10KM30-39 2231 00:50:57
100 CLARK, DOUG 10KM40-49 2066 00:51:01
101 BROWN, JERRY 10KM50-59 2049 00:51:10
102 SALMON, MAX 10KM50-59 2374 00:51:23
103 THOMSEN, KEN 10KM40-49 2421 00:51:24
104 VOLK, STAN 10KM40-49 2447 00:51:25
105 GALLAGHER, CHRISTOPHER 10KM30-39 2138 00:51:37
106 ARVIDSON, OWEN 10KM20-29 2009 00:51:39
107 ORR, LAURRY 10KM40-49 2338 00:51:42
108 BOORSMA, DICK 10KM40-49 2037 00:51:54
109 HILL, RYAN 10KM12-15 2188 00:51:58
110 KOZUB, JON 10KM20-29 2233 00:51:59
111 BASKERVILLE, FRED 10KM40-49 2025 00:51:59
112 PONECH, KEVIN 10KM30-39 2352 00:52:08
113 DRAFFIN, GREGORY 10KM30-39 2095 00:52:11
114 HEINRICH, KEVIN 10KM30-39 2181 00:52:19
115 MUCCIARONE, GEORGE 10KM30-39 2312 00:52:21
116 SCHILLING, JASON 10KM20-29 2376 00:52:22
117 YIP, SAM 10KM30-39 2483 00:52:24
118 WHITE, LARRY 10KM50-59 2465 00:52:28
119 GRIER, BLAIR 10KM30-39 2160 00:52:36
120 MANTELLO, EMILIO 10KM30-39 2271 00:52:57
121 ALLAN, SCOTT 10KM30-39 2004 00:52:59
122 OLSON, BARRY 10KM40-49 2334 00:53:13
123 GRAY, BRUCE 10KM30-39 2159 00:53:15
124 NELSON, PETER 10KM40-49 2324 00:53:16
125 ST. LAURENT, JAMES 10KM30-39 2397 00:53:25
126 DUKE, GRANT 10KM40-49 2105 00:53:34
127 VON CHORUS, DOUG 10KM30-39 2448 00:53:50
128 BOUW, WES 10KM30-39 2043 00:53:53
129 THURBOR, BRUCE 10KM30-39 2424 00:53:55
130 BUTLER, PETER 10KM50-59 2052 00:53:58
131 DUECK, MURRAY 10KM40-49 2100 00:54:01
132 KALEN, JIM 10KM20-29 2215 00:54:03
133 SCHWARTZENBERGER, ALLAN 10KM30-39 2380 00:54:06
134 GODOY, DUDLEY 10KM50-59 2155 00:54:14
135 MUELLER, PETER 10KM50-59 2314 00:54:17
136 YOUNG, REGGIE 10KM11< 2485 00:54:31
137 BAKER, DAREL 10KM30-39 2016 00:54:31
138 COPELAND, KEVIN 10KM30-39 2074 00:54:33
139 SYME, RUSS 10KM30-39 2409 00:54:34
140 MARTIN, DAVE 10KM60-69 2275 00:54:40
141 NASH, GEOFF 10KM40-49 2320 00:54:47
142 THOMAS, JAMES 10KM30-39 2419 00:54:59
143 PYNE, PATRICK 10KM40-49 2357 00:55:02
144 LITTLE, BRADLEY 10KM11< 2251 00:55:05
145 STEEVES, FLOYD 10KM50-59 2401 00:55:14
146 ROSS, MIKE 10KM40-49 2369 00:55:24
147 LINDENBAUCH, JAMIE 10KM40-49 2248 00:55:45
148 MCCRAY, GLENN 10KM30-39 2282 00:56:01
149 LORENZ, BRENT 10KM20-29 2258 00:56:13
150 LEISHMAN, CURTIS 10KM20-29 2244 00:56:18
151 MCLAUGHLIN, DOUG 10KM40-49 2292 00:56:19
152 ZAGORSKY, DOUG 10KM20-29 2487 00:56:27
153 HARRIS, DARREN 10KM30-39 2177 00:56:37
154 UNGER, BUCK 10KM16-19 2430 00:56:38
155 MAHON, BRUCE 10KM20-29 2267 00:56:39
156 MARTIN, FRED 10KM50-59 2277 00:57:13
157 SPATE, JAY 10KM20-29 2394 00:57:20
158 TARRANT, DENNIS 10KM50-59 2411 00:57:26
159 LITTLE, D.J. 10KM30-39 2252 00:57:31
160 ELIUK, PETER 10KM40-49 2114 00:57:43
161 RASMUSSEN, HOWARD 10KM40-49 2359 00:57:44
162 FRITZ, KEN 10KM50-59 2133 00:57:48
163 CUDDEFORD, GARY 10KM40-49 2082 00:58:04
164 OLIVIER, ARTHUR 10KM50-59 2333 00:58:06
165 VAN DEURZEN, FRANK 10KM50-59 2436 00:58:18
166 HAGAN, AL 10KM50-59 2167 00:58:21
167 MCGEE, DAN 10KM40-49 2288 00:58:26
168 NIELSON, DALE 10KM20-29 2326 00:58:37
169 LA ROSE, SEAN 10KM12-15 2238 00:59:14
170 JORGENSEN, CHRIS 10KM20-29 2210 00:59:16
171 MOSER, BRIAN 10KM30-39 2311 00:59:17
172 KINGSEP, GARY 10KM50-59 2228 00:59:17
173 ARVIDSON, ROBERT 10KM50-59 2010 00:59:18
174 ZAPPONE, FRANK 10KM30-39 2488 00:59:24
175 FARADAY, JAMES 10KM30-39 2123 00:59:25
176 WERRE, DARRELL 10KM30-39 2464 00:59:30
177 BROOKS, WALLY 10KM40-49 2492 00:59:33
178 CLARK, STEPHEN 10KM50-59 2068 00:59:50
179 ORR, MERVIN 10KM40-49 2339 00:59:53
180 CROWFOOT, STRATEN 10KM40-49 2081 00:59:55
181 BALDRY, ROGER 10KM40-49 2021 00:59:57
182 DORVAL, AL 10KM40-49 2094 01:00:15
183 HAKSTOL, KEN 10KM40-49 2170 01:00:17
184 HO, DOUGLAS 10KM50-59 2191 01:00:19
185 GRAHAM, BOB 10KM40-49 2157 01:00:33
186 DEMKIW, STEVE 10KM40-49 2089 01:00:39
187 MARCHUK, GRANT 10KM40-49 2272 01:00:56
188 AULT, RAY 10KM40-49 2011 01:00:57
189 DOLAN, ROBERT 10KM50-59 2091 01:01:15
190 BEAVEN, JOHN 10KM50-59 2026 01:01:23
191 VAN RAAY, COR 10KM60-69 2439 01:01:24
192 TERLIEN, PAUL 10KM40-49 2415 01:01:43
193 WARREN, JARED 10KM12-15 2451 01:02:14
194 ROSENEGGER, STEPHEN 10KM20-29 2367 01:02:17
195 WASKIEWICZ, ANDREW 10KM40-49 2454 01:02:18
196 BILLINGS, BJ 10KM50-59 2031 01:02:19
197 EARL, KENT 10KM20-29 2110 01:02:41
198 BRADEN, DOUG 10KM30-39 2044 01:03:09
199 PEREGOODOFF, ROBERT 10KM30-39 2347 01:03:52
200 STUBBS, ROBERT 10KM40-49 2405 01:04:36
201 GROAT, JIM 10KM30-39 2162 01:05:37
202 SCHWARTZ, MARVIN 10KM40-49 2378 01:05:52
203 ERB, LANDON 10KM12-15 2121 01:06:18
204 FROHLICK, RON 10KM50-59 2137 01:06:27
205 PASOLLI, ALAN 10KM40-49 2342 01:06:42
206 BERRY, SCOTT 10KM20-29 2028 01:07:08
207 CHAMPLONE, DINO 10KM30-39 2061 01:07:30
208 NELSON, DALE 10KM40-49 2323 01:07:33
209 ZOOK, JIM 10KM40-49 2491 01:07:46
210 THOMAS, ROB 10KM30-39 2420 01:07:51
211 HARDIE, RON 10KM50-59 2175 01:08:53
212 WEBSTER, BRUCE 10KM40-49 2459 01:08:55
213 CHAPMAN, JIM 10KM40-49 2062 01:09:25
214 HERRON, JOHN 10KM50-59 2184 01:09:38
215 UNGER, CLARENCE 10KM30-39 2431 01:09:43
216 ENTWHISTLE, IAN 10KM30-39 2120 01:11:28
217 SISSONS, GREG 10KM12-15 2391 01:11:29
218 PASICIEL, BRIAN 10KM12-15 2341 01:11:33
219 PENNER, NATHAN 10KM12-15 2346 01:11:34
220 DUECK, CARL 10KM30-39 2099 01:12:55
221 VAN DER MERWE, IZAK 10KM50-59 2434 01:13:01
222 SPENCER, ROSS 10KM40-49 2395 01:15:23
223 JACKSON, WAYNE 10KM50-59 2199 01:17:37
224 ALEBKIS, TERRY 10KM60-69 2003 01:24:25
225 NEALE, SAM 10KM11< 2322 01:28:43
226 NEALE, FRED 10KM40-49 2321 01:29:30
227 HAWTHORNE, REED 10KM40-49 2179 01:48:18